Pagina principale
METAR-TAF:

METAR-TAF

Aeroporti :

Aghajari, Iran

latitudine: 30-46N, longitudine: 049-40E, altezza: 29 m

Osservazione

Il bollettino è stato emesso 1 ora e 4 minuti fa, alle 13:00 UTC
Vento 12 kt da sud
Temperature 21°C
Umidità 60%
Pressione 1017 hPa
Visibilità 10 km o più
Poco nuvoloso ad un'altezza di 3000 ft, Cumulonembo.
Nubi sparse ad un'altezza di 3500 ft, Cumulo congesto.

METAR: OIAG 191300Z 18012KT 9999 FEW030CB SCT035TCU 21/13 Q1017

Ora: 17:34 (14:04 UTC)


TAF: mancante

Osservazioni e previsioni meteorologiche di più di 4000 aeroporti (messaggi METAR e TAF).

Le stazioni disponibili sono rappresentate dai dischi gialli e rossi sulla carta.

Puntare il mouse per vedere il nome della stazione.

Clicca sopra per visualizzare le osservazioni e previsioni meteorologiche.

Per cambiare la mappa : fare clic sui pulsanti verdi con una croce nera per ingrandire, il pulsante verde con un trattino per diminuire, o sulla freccia verde per le mappe adiacenti.


METAR-TAF: